Time;durP1;ratioP1;P1;durP2;ratioP2;P2;SDS_P1;SDS_P2;PMS_P1;PMS_P2;Temp;Humidity;BMP_temperature;BMP_pressure;BME280_temperature;BME280_humidity;BME280_pressure;Samples;Min_cycle;Max_cycle;Signal;HPM_P1;HPM_P2
2023/01/06 20:02:46;;;;;;;0.50;0.10;;;11.60;99.90;;;;;;4819711;29;20878;-76
2023/01/06 20:05:14;;;;;;;0.50;0.10;;;11.60;99.90;;;;;;4823176;29;20480;-76
2023/01/06 20:07:42;;;;;;;0.50;0.20;;;11.60;99.90;;;;;;4821695;29;20471;-78
2023/01/06 20:10:10;;;;;;;0.50;0.10;;;11.60;99.90;;;;;;4824531;29;20453;-77
2023/01/06 20:12:38;;;;;;;0.50;0.10;;;11.60;99.90;;;;;;4832786;29;20522;-78
2023/01/06 20:15:07;;;;;;;0.50;0.10;;;11.60;99.90;;;;;;4837433;29;20453;-76
2023/01/06 20:17:34;;;;;;;0.50;0.10;;;11.70;99.90;;;;;;4863031;24;20508;-69
2023/01/06 20:20:04;;;;;;;2.87;0.40;;;11.60;99.90;;;;;;4832754;29;20568;-72
2023/01/06 20:22:32;;;;;;;0.50;0.10;;;11.70;99.90;;;;;;4840142;29;20452;-71
2023/01/06 20:25:00;;;;;;;0.50;0.10;;;;;;;;;;4833860;29;20458;-70
2023/01/06 20:27:29;;;;;;;0.50;0.10;;;11.70;99.90;;;;;;4822034;29;20567;-72
2023/01/06 20:29:57;;;;;;;0.50;0.10;;;11.70;99.90;;;;;;4821937;29;20454;-72
2023/01/06 20:32:25;;;;;;;0.50;0.10;;;11.70;99.90;;;;;;4822273;29;20465;-69
2023/01/06 20:34:52;;;;;;;0.50;0.10;;;11.70;99.90;;;;;;4824365;29;20491;-73
2023/01/06 20:37:22;;;;;;;0.50;0.10;;;11.70;99.90;;;;;;4804195;29;20489;-70
2023/01/06 20:39:51;;;;;;;0.50;0.10;;;11.70;99.90;;;;;;4804398;29;20554;-69
2023/01/06 20:42:19;;;;;;;0.93;0.83;;;11.70;99.90;;;;;;4807227;29;20458;-74
2023/01/06 20:44:47;;;;;;;0.50;0.20;;;11.80;99.90;;;;;;4809147;29;20957;-68
2023/01/06 20:47:15;;;;;;;0.50;0.10;;;11.70;99.90;;;;;;4807995;29;20478;-71
2023/01/06 20:49:43;;;;;;;0.50;0.10;;;11.70;99.90;;;;;;4808031;29;20447;-71
2023/01/06 20:52:11;;;;;;;0.50;0.10;;;11.70;99.90;;;;;;4807334;29;20536;-73
2023/01/06 20:54:40;;;;;;;0.50;0.10;;;11.80;99.90;;;;;;4808041;29;20457;-70
2023/01/06 20:57:08;;;;;;;0.50;0.10;;;11.70;99.90;;;;;;4824370;29;20513;-69
2023/01/06 20:59:35;;;;;;;0.50;0.10;;;11.70;99.90;;;;;;4839981;29;20483;-71
2023/01/06 21:02:03;;;;;;;1.27;1.17;;;11.70;99.90;;;;;;4841686;29;20946;-74
2023/01/06 21:04:32;;;;;;;0.50;0.10;;;11.70;99.90;;;;;;4841266;29;20456;-72
2023/01/06 21:07:01;;;;;;;0.50;0.10;;;11.70;99.90;;;;;;4818610;29;20478;-71
2023/01/06 21:09:30;;;;;;;0.50;0.10;;;11.70;99.90;;;;;;4831546;29;20459;-68
2023/01/06 21:11:59;;;;;;;0.50;0.10;;;11.60;99.90;;;;;;4829622;29;20513;-72
2023/01/06 21:14:27;;;;;;;0.50;0.10;;;11.60;99.90;;;;;;4824282;29;20810;-70
2023/01/06 21:16:55;;;;;;;0.50;0.10;;;11.60;99.90;;;;;;4822482;29;21003;-71
2023/01/06 21:19:23;;;;;;;0.60;0.33;;;11.60;99.90;;;;;;4824302;29;20492;-69
2023/01/06 21:21:51;;;;;;;0.50;0.10;;;11.50;99.90;;;;;;4824644;29;20967;-69
2023/01/06 21:24:18;;;;;;;0.50;0.10;;;11.50;99.90;;;;;;4824587;29;20464;-68
2023/01/06 21:26:46;;;;;;;0.50;0.10;;;11.40;99.90;;;;;;4822681;29;20989;-69
2023/01/06 21:29:15;;;;;;;0.80;0.57;;;11.50;99.90;;;;;;4824770;29;20464;-70
2023/01/06 21:31:43;;;;;;;0.60;0.40;;;13.10;99.90;;;;;;4825002;29;20460;-68
2023/01/06 21:34:11;;;;;;;0.50;0.10;;;11.50;99.90;;;;;;4825169;29;20831;-69
2023/01/06 21:36:39;;;;;;;0.50;0.10;;;11.40;99.90;;;;;;4808614;29;20877;-67
2023/01/06 21:39:07;;;;;;;0.50;0.10;;;11.40;99.90;;;;;;4806801;29;20490;-69
2023/01/06 21:44:22;;;;;;;0.50;0.10;;;11.40;99.90;;;;;;4806739;29;20953;-72
2023/01/06 21:46:50;;;;;;;0.90;0.90;;;11.40;99.90;;;;;;4823482;29;20872;-69
2023/01/06 21:49:18;;;;;;;0.50;0.10;;;11.40;99.90;;;;;;4824809;29;20987;-68
2023/01/06 21:51:47;;;;;;;0.50;0.10;;;11.40;99.90;;;;;;4824299;29;20464;-67
2023/01/06 21:54:15;;;;;;;0.50;0.17;;;11.30;99.90;;;;;;4824403;29;20489;-70
2023/01/06 21:56:43;;;;;;;0.50;0.10;;;11.30;99.90;;;;;;4808585;29;20486;-68
2023/01/06 21:59:11;;;;;;;0.60;0.37;;;11.30;99.90;;;;;;4806349;29;20562;-73
2023/01/06 22:01:40;;;;;;;0.50;0.10;;;11.30;99.90;;;;;;4805935;29;21118;-69
2023/01/06 22:04:08;;;;;;;2.20;0.57;;;11.30;99.90;;;;;;4806173;29;20466;-68
2023/01/06 22:06:37;;;;;;;0.50;0.10;;;11.20;99.90;;;;;;4820372;29;20473;-69
2023/01/06 22:09:07;;;;;;;0.50;0.20;;;11.20;99.90;;;;;;4834112;29;20500;-70
2023/01/06 22:11:37;;;;;;;0.50;0.10;;;11.20;99.90;;;;;;4842514;29;20456;-68
2023/01/06 22:14:06;;;;;;;0.50;0.10;;;11.20;99.90;;;;;;4833375;29;20506;-71
2023/01/06 22:16:34;;;;;;;0.50;0.10;;;11.30;99.90;;;;;;4824172;29;20507;-69
2023/01/06 22:19:03;;;;;;;1.13;1.13;;;11.30;99.90;;;;;;4824136;29;20463;-70
2023/01/06 22:21:32;;;;;;;0.50;0.10;;;11.30;99.90;;;;;;4824200;29;20454;-69
2023/01/06 22:24:00;;;;;;;0.50;0.10;;;11.30;99.90;;;;;;4816710;29;20483;-69
2023/01/06 22:26:28;;;;;;;0.50;0.10;;;11.40;99.90;;;;;;4805936;29;20475;-70
2023/01/06 22:28:56;;;;;;;0.97;0.83;;;11.40;99.90;;;;;;4805989;29;20462;-70
2023/01/06 22:31:24;;;;;;;0.50;0.10;;;11.40;99.90;;;;;;4805771;29;20450;-71
2023/01/06 22:33:52;;;;;;;0.50;0.10;;;11.40;99.90;;;;;;4811430;29;20604;-69
2023/01/06 22:36:21;;;;;;;0.50;0.10;;;11.80;99.90;;;;;;4824053;29;21169;-68
2023/01/06 22:38:48;;;;;;;0.50;0.10;;;11.40;99.90;;;;;;4823901;29;20487;-69
2023/01/06 22:41:16;;;;;;;0.50;0.10;;;11.40;99.90;;;;;;4823631;29;20488;-68
2023/01/06 22:43:44;;;;;;;0.50;0.10;;;11.40;99.90;;;;;;4819343;29;20459;-70
2023/01/06 22:46:13;;;;;;;0.50;0.10;;;11.40;99.90;;;;;;4806396;29;20474;-67
2023/01/06 22:48:41;;;;;;;0.50;0.10;;;11.40;99.90;;;;;;4807241;29;20988;-68
2023/01/06 22:51:12;;;;;;;2.30;2.20;;;11.40;99.90;;;;;;4807266;29;20879;-69
2023/01/06 22:53:41;;;;;;;0.50;0.10;;;11.40;99.90;;;;;;4811053;29;20489;-73
2023/01/06 22:56:11;;;;;;;0.50;0.10;;;11.40;99.90;;;;;;4816808;29;20541;-70
2023/01/06 22:58:40;;;;;;;0.50;0.10;;;11.40;99.90;;;;;;4808032;29;20516;-70
2023/01/06 23:01:08;;;;;;;0.50;0.10;;;11.40;99.90;;;;;;4807675;29;20981;-69
2023/01/06 23:03:37;;;;;;;0.50;0.10;;;11.40;99.90;;;;;;4808997;29;20460;-70
2023/01/06 23:06:07;;;;;;;0.50;0.10;;;11.40;99.90;;;;;;4822985;29;20480;-71
2023/01/06 23:08:36;;;;;;;2.00;1.90;;;11.40;99.90;;;;;;4823996;29;20517;-71
2023/01/06 23:11:16;;;;;;;0.50;0.10;;;11.40;99.90;;;;;;4823169;29;20457;-70
2023/01/06 23:13:45;;;;;;;1.27;0.63;;;11.40;99.90;;;;;;4824152;29;20509;-68
2023/01/06 23:16:15;;;;;;;0.50;0.10;;;11.40;99.90;;;;;;4823223;29;20531;-74
2023/01/06 23:18:44;;;;;;;0.50;0.10;;;11.40;99.90;;;;;;4823771;29;20450;-69
2023/01/06 23:21:14;;;;;;;0.50;0.10;;;11.40;99.90;;;;;;4823386;29;20489;-68
2023/01/06 23:23:44;;;;;;;0.50;0.10;;;11.40;99.90;;;;;;4819898;29;20500;-68
2023/01/06 23:26:14;;;;;;;0.50;0.10;;;11.40;99.90;;;;;;4805040;29;20485;-69
2023/01/06 23:28:43;;;;;;;0.50;0.10;;;11.40;99.90;;;;;;4805041;29;20453;-67
2023/01/06 23:31:13;;;;;;;0.50;0.10;;;11.40;99.90;;;;;;4804881;29;20477;-71
2023/01/06 23:33:43;;;;;;;0.50;0.10;;;11.40;99.90;;;;;;4810259;29;20464;-73
2023/01/06 23:36:13;;;;;;;0.60;0.30;;;11.30;99.90;;;;;;4822986;29;20473;-69
2023/01/06 23:38:41;;;;;;;0.50;0.10;;;11.30;99.90;;;;;;4822900;29;20453;-69
2023/01/06 23:41:11;;;;;;;0.50;0.10;;;11.30;99.90;;;;;;4822796;29;20489;-69
2023/01/06 23:43:40;;;;;;;0.50;0.10;;;11.30;99.90;;;;;;4817901;29;20463;-68
2023/01/06 23:46:11;;;;;;;0.50;0.20;;;11.30;99.90;;;;;;4804681;29;20474;-68
2023/01/06 23:48:39;;;;;;;0.50;0.10;;;11.30;99.90;;;;;;4804735;29;20458;-68
2023/01/06 23:51:08;;;;;;;0.50;0.10;;;11.30;99.90;;;;;;4804356;29;21011;-68
2023/01/06 23:53:37;;;;;;;0.50;0.10;;;11.30;99.90;;;;;;4804827;29;20462;-69
2023/01/06 23:56:08;;;;;;;0.50;0.10;;;11.40;99.90;;;;;;4804970;29;20485;-68
2023/01/06 23:58:37;;;;;;;0.50;0.10;;;11.40;99.90;;;;;;4804828;29;20507;-68
